sensor_id;sensor_type;location;lat;lon;timestamp;P1;durP1;ratioP1;P2;durP2;ratioP2
13605;SDS011;6874;52.084;5.090;2024-03-02T00:00:11;119.80;;;115.80;;
13605;SDS011;6874;52.084;5.090;2024-03-02T00:02:41;111.63;;;107.93;;
13605;SDS011;6874;52.084;5.090;2024-03-02T00:05:08;110.63;;;106.93;;
13605;SDS011;6874;52.084;5.090;2024-03-02T00:07:36;106.63;;;103.10;;
13605;SDS011;6874;52.084;5.090;2024-03-02T00:10:04;105.03;;;101.53;;
13605;SDS011;6874;52.084;5.090;2024-03-02T00:12:37;87.30;;;84.43;;
13605;SDS011;6874;52.084;5.090;2024-03-02T00:15:29;88.13;;;85.20;;
13605;SDS011;6874;52.084;5.090;2024-03-02T00:18:08;76.60;;;73.90;;
13605;SDS011;6874;52.084;5.090;2024-03-02T00:20:35;83.97;;;80.97;;
13605;SDS011;6874;52.084;5.090;2024-03-02T00:23:05;88.17;;;85.00;;
13605;SDS011;6874;52.084;5.090;2024-03-02T00:25:44;82.57;;;79.60;;
13605;SDS011;6874;52.084;5.090;2024-03-02T00:28:18;86.80;;;83.67;;
13605;SDS011;6874;52.084;5.090;2024-03-02T00:33:42;94.60;;;91.23;;
13605;SDS011;6874;52.084;5.090;2024-03-02T00:36:09;91.63;;;88.33;;
13605;SDS011;6874;52.084;5.090;2024-03-02T00:38:46;88.00;;;84.83;;
13605;SDS011;6874;52.084;5.090;2024-03-02T00:41:20;81.47;;;78.53;;
13605;SDS011;6874;52.084;5.090;2024-03-02T00:46:26;88.50;;;85.33;;
13605;SDS011;6874;52.084;5.090;2024-03-02T00:48:58;86.50;;;83.43;;
13605;SDS011;6874;52.084;5.090;2024-03-02T00:51:26;87.37;;;84.27;;
13605;SDS011;6874;52.084;5.090;2024-03-02T00:53:53;85.97;;;82.90;;
13605;SDS011;6874;52.084;5.090;2024-03-02T00:56:22;87.00;;;83.90;;
13605;SDS011;6874;52.084;5.090;2024-03-02T00:58:49;83.40;;;80.43;;
13605;SDS011;6874;52.084;5.090;2024-03-02T01:01:15;91.57;;;88.33;;
13605;SDS011;6874;52.084;5.090;2024-03-02T01:03:41;79.37;;;76.60;;
13605;SDS011;6874;52.084;5.090;2024-03-02T01:06:07;77.80;;;75.03;;
13605;SDS011;6874;52.084;5.090;2024-03-02T01:08:36;82.30;;;79.40;;
13605;SDS011;6874;52.084;5.090;2024-03-02T01:11:02;85.03;;;82.03;;
13605;SDS011;6874;52.084;5.090;2024-03-02T01:13:28;83.67;;;80.73;;
13605;SDS011;6874;52.084;5.090;2024-03-02T01:15:54;82.70;;;79.73;;
13605;SDS011;6874;52.084;5.090;2024-03-02T01:18:20;75.10;;;72.47;;
13605;SDS011;6874;52.084;5.090;2024-03-02T01:20:47;83.63;;;80.67;;
13605;SDS011;6874;52.084;5.090;2024-03-02T01:23:16;83.43;;;80.47;;
13605;SDS011;6874;52.084;5.090;2024-03-02T01:25:42;82.10;;;79.20;;
13605;SDS011;6874;52.084;5.090;2024-03-02T01:28:08;75.07;;;72.47;;
13605;SDS011;6874;52.084;5.090;2024-03-02T01:30:33;82.60;;;79.70;;
13605;SDS011;6874;52.084;5.090;2024-03-02T01:32:59;82.53;;;79.63;;
13605;SDS011;6874;52.084;5.090;2024-03-02T01:35:27;74.60;;;72.00;;
13605;SDS011;6874;52.084;5.090;2024-03-02T01:37:52;82.67;;;79.77;;
13605;SDS011;6874;52.084;5.090;2024-03-02T01:40:18;80.80;;;77.97;;
13605;SDS011;6874;52.084;5.090;2024-03-02T01:42:44;76.43;;;73.77;;
13605;SDS011;6874;52.084;5.090;2024-03-02T01:45:09;79.57;;;76.73;;
13605;SDS011;6874;52.084;5.090;2024-03-02T01:47:35;76.23;;;73.57;;
13605;SDS011;6874;52.084;5.090;2024-03-02T01:50:01;73.80;;;71.20;;
13605;SDS011;6874;52.084;5.090;2024-03-02T01:52:27;79.23;;;76.43;;
13605;SDS011;6874;52.084;5.090;2024-03-02T01:54:52;77.53;;;74.80;;
13605;SDS011;6874;52.084;5.090;2024-03-02T01:57:18;79.43;;;76.60;;
13605;SDS011;6874;52.084;5.090;2024-03-02T01:59:44;77.67;;;74.90;;
13605;SDS011;6874;52.084;5.090;2024-03-02T02:02:10;80.43;;;77.63;;
13605;SDS011;6874;52.084;5.090;2024-03-02T02:04:35;86.07;;;83.03;;
13605;SDS011;6874;52.084;5.090;2024-03-02T02:07:01;82.07;;;79.13;;
13605;SDS011;6874;52.084;5.090;2024-03-02T02:09:26;78.80;;;76.03;;
13605;SDS011;6874;52.084;5.090;2024-03-02T02:11:52;82.00;;;79.13;;
13605;SDS011;6874;52.084;5.090;2024-03-02T02:14:18;81.10;;;78.23;;
13605;SDS011;6874;52.084;5.090;2024-03-02T02:16:43;84.73;;;81.70;;
13605;SDS011;6874;52.084;5.090;2024-03-02T02:19:09;83.50;;;80.57;;
13605;SDS011;6874;52.084;5.090;2024-03-02T02:21:35;78.40;;;75.67;;
13605;SDS011;6874;52.084;5.090;2024-03-02T02:24:01;79.30;;;76.47;;
13605;SDS011;6874;52.084;5.090;2024-03-02T02:26:29;73.47;;;70.90;;
13605;SDS011;6874;52.084;5.090;2024-03-02T02:28:54;79.43;;;76.60;;
13605;SDS011;6874;52.084;5.090;2024-03-02T02:31:20;81.20;;;78.33;;
13605;SDS011;6874;52.084;5.090;2024-03-02T02:33:45;85.63;;;82.60;;
13605;SDS011;6874;52.084;5.090;2024-03-02T02:36:11;85.73;;;82.67;;
13605;SDS011;6874;52.084;5.090;2024-03-02T02:38:43;86.37;;;83.30;;
13605;SDS011;6874;52.084;5.090;2024-03-02T02:41:11;76.13;;;73.43;;
13605;SDS011;6874;52.084;5.090;2024-03-02T02:43:37;89.60;;;86.43;;
13605;SDS011;6874;52.084;5.090;2024-03-02T02:46:04;80.70;;;77.83;;
13605;SDS011;6874;52.084;5.090;2024-03-02T02:48:30;82.47;;;79.53;;
13605;SDS011;6874;52.084;5.090;2024-03-02T02:50:56;80.03;;;77.20;;
13605;SDS011;6874;52.084;5.090;2024-03-02T02:53:21;85.57;;;82.50;;
13605;SDS011;6874;52.084;5.090;2024-03-02T02:55:47;87.17;;;84.07;;
13605;SDS011;6874;52.084;5.090;2024-03-02T02:58:12;84.50;;;81.50;;
13605;SDS011;6874;52.084;5.090;2024-03-02T03:00:38;85.73;;;82.67;;
13605;SDS011;6874;52.084;5.090;2024-03-02T03:03:04;84.93;;;81.93;;
13605;SDS011;6874;52.084;5.090;2024-03-02T03:05:30;80.87;;;77.97;;
13605;SDS011;6874;52.084;5.090;2024-03-02T03:07:57;76.83;;;74.13;;
13605;SDS011;6874;52.084;5.090;2024-03-02T03:10:22;81.50;;;78.63;;
13605;SDS011;6874;52.084;5.090;2024-03-02T03:12:50;80.43;;;77.57;;
13605;SDS011;6874;52.084;5.090;2024-03-02T03:15:16;86.10;;;83.03;;
13605;SDS011;6874;52.084;5.090;2024-03-02T03:17:42;70.73;;;68.23;;
13605;SDS011;6874;52.084;5.090;2024-03-02T03:20:08;67.93;;;65.53;;
13605;SDS011;6874;52.084;5.090;2024-03-02T03:22:40;72.20;;;69.67;;
13605;SDS011;6874;52.084;5.090;2024-03-02T03:25:06;64.47;;;62.27;;
13605;SDS011;6874;52.084;5.090;2024-03-02T03:27:33;67.40;;;65.03;;
13605;SDS011;6874;52.084;5.090;2024-03-02T03:29:58;68.73;;;66.33;;
13605;SDS011;6874;52.084;5.090;2024-03-02T03:32:24;68.13;;;65.73;;
13605;SDS011;6874;52.084;5.090;2024-03-02T03:34:49;69.93;;;67.47;;
13605;SDS011;6874;52.084;5.090;2024-03-02T03:37:15;71.93;;;69.43;;
13605;SDS011;6874;52.084;5.090;2024-03-02T03:39:41;73.70;;;71.10;;
13605;SDS011;6874;52.084;5.090;2024-03-02T03:42:06;72.77;;;70.23;;
13605;SDS011;6874;52.084;5.090;2024-03-02T03:44:32;66.80;;;64.50;;
13605;SDS011;6874;52.084;5.090;2024-03-02T03:46:58;67.53;;;65.17;;
13605;SDS011;6874;52.084;5.090;2024-03-02T03:49:24;73.67;;;71.07;;
13605;SDS011;6874;52.084;5.090;2024-03-02T03:51:49;69.50;;;67.10;;
13605;SDS011;6874;52.084;5.090;2024-03-02T03:54:15;67.27;;;64.93;;
13605;SDS011;6874;52.084;5.090;2024-03-02T03:56:40;62.27;;;60.10;;
13605;SDS011;6874;52.084;5.090;2024-03-02T03:59:06;70.70;;;68.23;;
13605;SDS011;6874;52.084;5.090;2024-03-02T04:01:31;74.40;;;71.80;;
13605;SDS011;6874;52.084;5.090;2024-03-02T04:03:57;70.30;;;67.87;;
13605;SDS011;6874;52.084;5.090;2024-03-02T04:06:23;63.67;;;61.47;;
13605;SDS011;6874;52.084;5.090;2024-03-02T04:08:49;70.47;;;68.00;;
13605;SDS011;6874;52.084;5.090;2024-03-02T04:11:14;74.50;;;71.90;;
13605;SDS011;6874;52.084;5.090;2024-03-02T04:13:40;68.40;;;66.00;;
13605;SDS011;6874;52.084;5.090;2024-03-02T04:16:05;75.27;;;72.60;;
13605;SDS011;6874;52.084;5.090;2024-03-02T04:18:31;73.30;;;70.67;;
13605;SDS011;6874;52.084;5.090;2024-03-02T04:21:00;73.43;;;70.83;;
13605;SDS011;6874;52.084;5.090;2024-03-02T04:23:28;65.97;;;63.63;;
13605;SDS011;6874;52.084;5.090;2024-03-02T04:25:54;64.80;;;62.53;;
13605;SDS011;6874;52.084;5.090;2024-03-02T04:28:19;74.60;;;71.97;;
13605;SDS011;6874;52.084;5.090;2024-03-02T04:30:45;70.50;;;68.00;;
13605;SDS011;6874;52.084;5.090;2024-03-02T04:33:10;69.70;;;67.20;;
13605;SDS011;6874;52.084;5.090;2024-03-02T04:35:36;70.20;;;67.70;;
13605;SDS011;6874;52.084;5.090;2024-03-02T04:38:02;65.10;;;62.80;;
13605;SDS011;6874;52.084;5.090;2024-03-02T04:40:28;68.17;;;65.73;;
13605;SDS011;6874;52.084;5.090;2024-03-02T04:42:53;65.70;;;63.40;;
13605;SDS011;6874;52.084;5.090;2024-03-02T04:45:19;68.70;;;66.20;;
13605;SDS011;6874;52.084;5.090;2024-03-02T04:47:44;69.10;;;66.67;;
13605;SDS011;6874;52.084;5.090;2024-03-02T04:50:10;74.30;;;71.67;;
13605;SDS011;6874;52.084;5.090;2024-03-02T04:52:36;67.77;;;65.37;;
13605;SDS011;6874;52.084;5.090;2024-03-02T04:55:01;61.43;;;59.33;;
13605;SDS011;6874;52.084;5.090;2024-03-02T04:57:53;62.07;;;59.93;;
13605;SDS011;6874;52.084;5.090;2024-03-02T05:00:22;59.90;;;57.87;;
13605;SDS011;6874;52.084;5.090;2024-03-02T05:02:48;68.50;;;66.10;;
13605;SDS011;6874;52.084;5.090;2024-03-02T05:05:13;62.50;;;60.37;;
13605;SDS011;6874;52.084;5.090;2024-03-02T05:07:42;66.67;;;64.40;;
13605;SDS011;6874;52.084;5.090;2024-03-02T05:10:09;73.70;;;71.17;;
13605;SDS011;6874;52.084;5.090;2024-03-02T05:12:35;74.07;;;71.53;;
13605;SDS011;6874;52.084;5.090;2024-03-02T05:15:00;77.10;;;74.50;;
13605;SDS011;6874;52.084;5.090;2024-03-02T05:17:27;79.87;;;77.17;;
13605;SDS011;6874;52.084;5.090;2024-03-02T05:19:52;80.73;;;78.00;;
13605;SDS011;6874;52.084;5.090;2024-03-02T05:22:18;87.83;;;84.87;;
13605;SDS011;6874;52.084;5.090;2024-03-02T05:24:43;81.87;;;79.07;;
13605;SDS011;6874;52.084;5.090;2024-03-02T05:27:09;94.13;;;90.97;;
13605;SDS011;6874;52.084;5.090;2024-03-02T05:29:34;81.77;;;79.00;;
13605;SDS011;6874;52.084;5.090;2024-03-02T05:32:00;82.63;;;79.83;;
13605;SDS011;6874;52.084;5.090;2024-03-02T05:34:25;77.77;;;75.13;;
13605;SDS011;6874;52.084;5.090;2024-03-02T05:36:51;88.10;;;85.10;;
13605;SDS011;6874;52.084;5.090;2024-03-02T05:39:16;83.13;;;80.30;;
13605;SDS011;6874;52.084;5.090;2024-03-02T05:41:42;92.80;;;89.70;;
13605;SDS011;6874;52.084;5.090;2024-03-02T05:44:07;95.43;;;92.23;;
13605;SDS011;6874;52.084;5.090;2024-03-02T05:46:33;99.80;;;96.43;;
13605;SDS011;6874;52.084;5.090;2024-03-02T05:48:59;94.77;;;91.60;;
13605;SDS011;6874;52.084;5.090;2024-03-02T05:51:25;107.30;;;103.73;;
13605;SDS011;6874;52.084;5.090;2024-03-02T05:53:51;110.03;;;106.37;;
13605;SDS011;6874;52.084;5.090;2024-03-02T05:56:17;110.83;;;107.13;;
13605;SDS011;6874;52.084;5.090;2024-03-02T05:58:42;109.27;;;105.63;;
13605;SDS011;6874;52.084;5.090;2024-03-02T06:01:26;98.03;;;94.77;;
13605;SDS011;6874;52.084;5.090;2024-03-02T06:03:56;93.70;;;90.60;;
13605;SDS011;6874;52.084;5.090;2024-03-02T06:06:23;84.77;;;82.00;;
13605;SDS011;6874;52.084;5.090;2024-03-02T06:08:49;93.73;;;90.63;;
13605;SDS011;6874;52.084;5.090;2024-03-02T06:11:15;87.90;;;85.00;;
13605;SDS011;6874;52.084;5.090;2024-03-02T06:13:41;77.20;;;74.63;;
13605;SDS011;6874;52.084;5.090;2024-03-02T06:16:06;74.37;;;71.97;;
13605;SDS011;6874;52.084;5.090;2024-03-02T06:18:33;72.40;;;70.03;;
13605;SDS011;6874;52.084;5.090;2024-03-02T06:20:59;67.17;;;64.97;;
13605;SDS011;6874;52.084;5.090;2024-03-02T06:23:25;59.73;;;57.80;;
13605;SDS011;6874;52.084;5.090;2024-03-02T06:25:51;57.57;;;55.70;;
13605;SDS011;6874;52.084;5.090;2024-03-02T06:28:17;72.97;;;70.53;;
13605;SDS011;6874;52.084;5.090;2024-03-02T06:30:42;70.10;;;67.70;;
13605;SDS011;6874;52.084;5.090;2024-03-02T06:33:08;74.40;;;71.87;;
13605;SDS011;6874;52.084;5.090;2024-03-02T06:35:34;65.57;;;63.37;;
13605;SDS011;6874;52.084;5.090;2024-03-02T06:38:00;74.03;;;71.50;;
13605;SDS011;6874;52.084;5.090;2024-03-02T06:40:26;57.10;;;55.17;;
13605;SDS011;6874;52.084;5.090;2024-03-02T06:42:52;73.87;;;71.33;;
13605;SDS011;6874;52.084;5.090;2024-03-02T06:45:17;69.30;;;66.97;;
13605;SDS011;6874;52.084;5.090;2024-03-02T06:47:43;60.70;;;58.67;;
13605;SDS011;6874;52.084;5.090;2024-03-02T06:50:09;69.07;;;66.73;;
13605;SDS011;6874;52.084;5.090;2024-03-02T06:52:35;65.50;;;63.30;;
13605;SDS011;6874;52.084;5.090;2024-03-02T06:55:01;58.87;;;56.90;;
13605;SDS011;6874;52.084;5.090;2024-03-02T06:57:27;70.10;;;67.77;;
13605;SDS011;6874;52.084;5.090;2024-03-02T06:59:52;68.30;;;66.00;;
13605;SDS011;6874;52.084;5.090;2024-03-02T07:02:20;69.50;;;67.20;;
13605;SDS011;6874;52.084;5.090;2024-03-02T07:04:46;69.83;;;67.53;;
13605;SDS011;6874;52.084;5.090;2024-03-02T07:07:11;74.40;;;71.90;;
13605;SDS011;6874;52.084;5.090;2024-03-02T07:09:37;71.73;;;69.33;;
13605;SDS011;6874;52.084;5.090;2024-03-02T07:12:03;69.70;;;67.40;;
13605;SDS011;6874;52.084;5.090;2024-03-02T07:14:28;71.33;;;68.93;;
13605;SDS011;6874;52.084;5.090;2024-03-02T07:17:13;62.43;;;60.30;;
13605;SDS011;6874;52.084;5.090;2024-03-02T07:19:38;62.83;;;60.73;;
13605;SDS011;6874;52.084;5.090;2024-03-02T07:22:07;70.77;;;68.40;;
13605;SDS011;6874;52.084;5.090;2024-03-02T07:24:39;67.00;;;64.77;;
13605;SDS011;6874;52.084;5.090;2024-03-02T07:27:09;70.40;;;68.03;;
13605;SDS011;6874;52.084;5.090;2024-03-02T07:29:35;64.07;;;61.90;;
13605;SDS011;6874;52.084;5.090;2024-03-02T07:32:01;73.00;;;70.53;;
13605;SDS011;6874;52.084;5.090;2024-03-02T07:34:26;67.03;;;64.80;;
13605;SDS011;6874;52.084;5.090;2024-03-02T07:36:52;66.13;;;63.90;;
13605;SDS011;6874;52.084;5.090;2024-03-02T07:39:18;60.90;;;58.87;;
13605;SDS011;6874;52.084;5.090;2024-03-02T07:41:44;70.20;;;67.87;;
13605;SDS011;6874;52.084;5.090;2024-03-02T07:44:11;69.03;;;66.70;;
13605;SDS011;6874;52.084;5.090;2024-03-02T07:46:39;69.87;;;67.53;;
13605;SDS011;6874;52.084;5.090;2024-03-02T07:49:08;65.27;;;63.10;;
13605;SDS011;6874;52.084;5.090;2024-03-02T07:51:34;65.70;;;63.50;;
13605;SDS011;6874;52.084;5.090;2024-03-02T07:54:01;58.97;;;57.03;;
13605;SDS011;6874;52.084;5.090;2024-03-02T07:56:27;66.37;;;64.17;;
13605;SDS011;6874;52.084;5.090;2024-03-02T07:58:52;64.73;;;62.63;;
13605;SDS011;6874;52.084;5.090;2024-03-02T08:01:18;59.40;;;57.47;;
13605;SDS011;6874;52.084;5.090;2024-03-02T08:03:43;68.13;;;65.87;;
13605;SDS011;6874;52.084;5.090;2024-03-02T08:06:14;67.57;;;65.37;;
13605;SDS011;6874;52.084;5.090;2024-03-02T08:08:41;67.80;;;65.60;;
13605;SDS011;6874;52.084;5.090;2024-03-02T08:11:06;68.10;;;65.83;;
13605;SDS011;6874;52.084;5.090;2024-03-02T08:13:32;60.90;;;58.90;;
13605;SDS011;6874;52.084;5.090;2024-03-02T08:15:57;64.07;;;61.97;;
13605;SDS011;6874;52.084;5.090;2024-03-02T08:18:23;57.33;;;55.43;;
13605;SDS011;6874;52.084;5.090;2024-03-02T08:20:49;66.17;;;63.97;;
13605;SDS011;6874;52.084;5.090;2024-03-02T08:23:15;67.67;;;65.47;;
13605;SDS011;6874;52.084;5.090;2024-03-02T08:25:41;62.87;;;60.77;;
13605;SDS011;6874;52.084;5.090;2024-03-02T08:28:07;65.43;;;63.27;;
13605;SDS011;6874;52.084;5.090;2024-03-02T08:30:32;60.50;;;58.50;;
13605;SDS011;6874;52.084;5.090;2024-03-02T08:32:58;55.60;;;53.77;;
13605;SDS011;6874;52.084;5.090;2024-03-02T08:35:23;59.43;;;57.47;;
13605;SDS011;6874;52.084;5.090;2024-03-02T08:37:49;52.03;;;50.33;;
13605;SDS011;6874;52.084;5.090;2024-03-02T08:40:15;50.83;;;49.13;;
13605;SDS011;6874;52.084;5.090;2024-03-02T08:42:40;59.90;;;57.90;;
13605;SDS011;6874;52.084;5.090;2024-03-02T08:45:06;53.80;;;52.03;;
13605;SDS011;6874;52.084;5.090;2024-03-02T08:47:32;59.70;;;57.70;;
13605;SDS011;6874;52.084;5.090;2024-03-02T08:49:59;54.67;;;52.83;;
13605;SDS011;6874;52.084;5.090;2024-03-02T08:52:25;53.07;;;51.33;;
13605;SDS011;6874;52.084;5.090;2024-03-02T08:54:50;53.27;;;51.50;;
13605;SDS011;6874;52.084;5.090;2024-03-02T08:57:16;55.10;;;53.27;;
13605;SDS011;6874;52.084;5.090;2024-03-02T08:59:42;62.47;;;60.37;;
13605;SDS011;6874;52.084;5.090;2024-03-02T09:02:07;51.63;;;49.90;;
13605;SDS011;6874;52.084;5.090;2024-03-02T09:04:33;57.47;;;55.57;;
13605;SDS011;6874;52.084;5.090;2024-03-02T09:06:58;58.33;;;56.33;;
13605;SDS011;6874;52.084;5.090;2024-03-02T09:09:24;51.23;;;49.53;;
13605;SDS011;6874;52.084;5.090;2024-03-02T09:11:50;46.33;;;44.77;;
13605;SDS011;6874;52.084;5.090;2024-03-02T09:14:19;54.10;;;52.30;;
13605;SDS011;6874;52.084;5.090;2024-03-02T09:16:45;45.03;;;43.53;;
13605;SDS011;6874;52.084;5.090;2024-03-02T09:19:11;43.67;;;42.23;;
13605;SDS011;6874;52.084;5.090;2024-03-02T09:21:37;54.97;;;53.07;;
13605;SDS011;6874;52.084;5.090;2024-03-02T09:24:03;43.20;;;41.77;;
13605;SDS011;6874;52.084;5.090;2024-03-02T09:26:28;44.47;;;42.97;;
13605;SDS011;6874;52.084;5.090;2024-03-02T09:28:54;80.70;;;77.77;;
13605;SDS011;6874;52.084;5.090;2024-03-02T09:31:20;82.03;;;79.07;;
13605;SDS011;6874;52.084;5.090;2024-03-02T09:33:48;69.03;;;66.53;;
13605;SDS011;6874;52.084;5.090;2024-03-02T09:36:17;78.10;;;75.23;;
13605;SDS011;6874;52.084;5.090;2024-03-02T09:38:43;81.00;;;78.00;;
13605;SDS011;6874;52.084;5.090;2024-03-02T09:41:09;66.83;;;64.40;;
13605;SDS011;6874;52.084;5.090;2024-03-02T09:43:35;68.80;;;66.27;;
13605;SDS011;6874;52.084;5.090;2024-03-02T09:46:01;65.27;;;62.87;;
13605;SDS011;6874;52.084;5.090;2024-03-02T09:48:34;67.63;;;65.13;;
13605;SDS011;6874;52.084;5.090;2024-03-02T09:51:00;63.60;;;61.27;;
13605;SDS011;6874;52.084;5.090;2024-03-02T09:53:28;66.53;;;64.07;;
13605;SDS011;6874;52.084;5.090;2024-03-02T09:55:56;65.37;;;62.90;;
13605;SDS011;6874;52.084;5.090;2024-03-02T09:58:22;62.50;;;60.10;;
13605;SDS011;6874;52.084;5.090;2024-03-02T10:00:47;61.90;;;59.60;;
13605;SDS011;6874;52.084;5.090;2024-03-02T10:03:14;62.40;;;60.10;;
13605;SDS011;6874;52.084;5.090;2024-03-02T10:05:39;63.53;;;61.17;;
13605;SDS011;6874;52.084;5.090;2024-03-02T10:08:05;62.87;;;60.53;;
13605;SDS011;6874;52.084;5.090;2024-03-02T10:10:35;58.40;;;56.23;;
13605;SDS011;6874;52.084;5.090;2024-03-02T10:13:05;56.60;;;54.50;;
13605;SDS011;6874;52.084;5.090;2024-03-02T10:15:32;49.27;;;47.43;;
13605;SDS011;6874;52.084;5.090;2024-03-02T10:17:58;58.20;;;56.03;;
13605;SDS011;6874;52.084;5.090;2024-03-02T10:20:27;58.17;;;56.00;;
13605;SDS011;6874;52.084;5.090;2024-03-02T10:23:09;53.60;;;51.63;;
13605;SDS011;6874;52.084;5.090;2024-03-02T10:25:39;45.90;;;44.23;;
13605;SDS011;6874;52.084;5.090;2024-03-02T10:28:05;50.57;;;48.67;;
13605;SDS011;6874;52.084;5.090;2024-03-02T10:30:31;59.03;;;56.83;;
13605;SDS011;6874;52.084;5.090;2024-03-02T10:32:57;56.43;;;54.33;;
13605;SDS011;6874;52.084;5.090;2024-03-02T10:35:23;55.60;;;53.50;;
13605;SDS011;6874;52.084;5.090;2024-03-02T10:37:49;59.13;;;56.93;;
13605;SDS011;6874;52.084;5.090;2024-03-02T10:40:15;58.70;;;56.53;;
13605;SDS011;6874;52.084;5.090;2024-03-02T10:42:41;61.10;;;58.87;;
13605;SDS011;6874;52.084;5.090;2024-03-02T10:45:08;57.73;;;55.60;;
13605;SDS011;6874;52.084;5.090;2024-03-02T10:47:38;58.90;;;56.70;;
13605;SDS011;6874;52.084;5.090;2024-03-02T10:50:05;60.90;;;58.67;;
13605;SDS011;6874;52.084;5.090;2024-03-02T10:52:34;52.63;;;50.73;;
13605;SDS011;6874;52.084;5.090;2024-03-02T10:55:00;60.07;;;57.90;;
13605;SDS011;6874;52.084;5.090;2024-03-02T10:57:26;62.07;;;59.77;;
13605;SDS011;6874;52.084;5.090;2024-03-02T10:59:56;56.90;;;54.83;;
13605;SDS011;6874;52.084;5.090;2024-03-02T11:02:25;47.70;;;46.07;;
13605;SDS011;6874;52.084;5.090;2024-03-02T11:04:54;42.37;;;40.93;;
13605;SDS011;6874;52.084;5.090;2024-03-02T11:07:20;41.27;;;39.87;;
13605;SDS011;6874;52.084;5.090;2024-03-02T11:09:50;42.37;;;40.93;;
13605;SDS011;6874;52.084;5.090;2024-03-02T11:12:36;31.17;;;30.17;;
13605;SDS011;6874;52.084;5.090;2024-03-02T11:15:04;24.93;;;24.13;;
13605;SDS011;6874;52.084;5.090;2024-03-02T11:17:35;27.83;;;26.93;;
13605;SDS011;6874;52.084;5.090;2024-03-02T11:20:02;31.10;;;30.10;;
13605;SDS011;6874;52.084;5.090;2024-03-02T11:22:29;30.07;;;29.10;;
13605;SDS011;6874;52.084;5.090;2024-03-02T11:24:55;32.77;;;31.73;;
13605;SDS011;6874;52.084;5.090;2024-03-02T11:33:05;53.17;;;51.37;;
13605;SDS011;6874;52.084;5.090;2024-03-02T11:35:33;55.73;;;53.87;;
13605;SDS011;6874;52.084;5.090;2024-03-02T11:38:11;57.07;;;55.17;;
13605;SDS011;6874;52.084;5.090;2024-03-02T11:40:38;61.70;;;59.67;;
13605;SDS011;6874;52.084;5.090;2024-03-02T11:43:05;106.73;;;103.13;;
13605;SDS011;6874;52.084;5.090;2024-03-02T11:45:32;144.10;;;138.90;;
13605;SDS011;6874;52.084;5.090;2024-03-02T11:47:59;96.80;;;93.30;;
13605;SDS011;6874;52.084;5.090;2024-03-02T11:53:07;97.07;;;93.67;;
13605;SDS011;6874;52.084;5.090;2024-03-02T11:55:35;78.67;;;76.03;;
13605;SDS011;6874;52.084;5.090;2024-03-02T11:58:02;122.20;;;117.90;;
13605;SDS011;6874;52.084;5.090;2024-03-02T12:00:31;232.57;;;224.07;;
13605;SDS011;6874;52.084;5.090;2024-03-02T12:03:00;275.70;;;264.27;;
13605;SDS011;6874;52.084;5.090;2024-03-02T12:05:27;338.53;;;323.57;;
13605;SDS011;6874;52.084;5.090;2024-03-02T12:08:00;396.53;;;378.77;;
13605;SDS011;6874;52.084;5.090;2024-03-02T12:10:27;413.00;;;393.63;;
13605;SDS011;6874;52.084;5.090;2024-03-02T12:13:00;446.63;;;425.37;;
13605;SDS011;6874;52.084;5.090;2024-03-02T12:15:32;432.20;;;411.63;;
13605;SDS011;6874;52.084;5.090;2024-03-02T12:18:00;476.87;;;454.03;;
13605;SDS011;6874;52.084;5.090;2024-03-02T12:20:27;517.47;;;492.40;;
13605;SDS011;6874;52.084;5.090;2024-03-02T12:22:54;508.73;;;483.87;;
13605;SDS011;6874;52.084;5.090;2024-03-02T12:25:23;527.70;;;501.40;;
13605;SDS011;6874;52.084;5.090;2024-03-02T12:27:50;560.83;;;532.93;;
13605;SDS011;6874;52.084;5.090;2024-03-02T12:30:19;556.43;;;528.87;;
13605;SDS011;6874;52.084;5.090;2024-03-02T12:32:45;573.47;;;544.73;;
13605;SDS011;6874;52.084;5.090;2024-03-02T12:35:11;578.77;;;549.70;;
13605;SDS011;6874;52.084;5.090;2024-03-02T12:37:43;568.97;;;540.87;;
13605;SDS011;6874;52.084;5.090;2024-03-02T12:40:13;539.07;;;513.37;;
13605;SDS011;6874;52.084;5.090;2024-03-02T12:42:40;501.60;;;478.77;;
13605;SDS011;6874;52.084;5.090;2024-03-02T12:45:07;481.13;;;459.83;;
13605;SDS011;6874;52.084;5.090;2024-03-02T12:47:36;432.90;;;414.20;;
13605;SDS011;6874;52.084;5.090;2024-03-02T12:50:03;375.40;;;359.60;;
13605;SDS011;6874;52.084;5.090;2024-03-02T12:52:29;287.00;;;275.63;;
13605;SDS011;6874;52.084;5.090;2024-03-02T12:54:57;194.37;;;187.07;;
13605;SDS011;6874;52.084;5.090;2024-03-02T12:57:27;140.10;;;134.87;;
13605;SDS011;6874;52.084;5.090;2024-03-02T13:00:06;107.53;;;103.63;;
13605;SDS011;6874;52.084;5.090;2024-03-02T13:02:34;101.03;;;97.40;;
13605;SDS011;6874;52.084;5.090;2024-03-02T13:05:01;64.23;;;62.03;;
13605;SDS011;6874;52.084;5.090;2024-03-02T13:07:27;40.13;;;38.80;;
13605;SDS011;6874;52.084;5.090;2024-03-02T13:09:53;32.90;;;31.80;;
13605;SDS011;6874;52.084;5.090;2024-03-02T13:12:21;27.73;;;26.83;;
13605;SDS011;6874;52.084;5.090;2024-03-02T13:14:53;23.23;;;22.47;;
13605;SDS011;6874;52.084;5.090;2024-03-02T13:17:19;26.43;;;25.57;;
13605;SDS011;6874;52.084;5.090;2024-03-02T13:19:52;29.27;;;28.30;;
13605;SDS011;6874;52.084;5.090;2024-03-02T13:22:22;26.50;;;25.67;;
13605;SDS011;6874;52.084;5.090;2024-03-02T13:24:48;27.83;;;26.93;;
13605;SDS011;6874;52.084;5.090;2024-03-02T13:27:14;30.63;;;29.63;;
13605;SDS011;6874;52.084;5.090;2024-03-02T13:29:41;36.07;;;34.83;;
13605;SDS011;6874;52.084;5.090;2024-03-02T13:32:07;39.73;;;38.33;;
13605;SDS011;6874;52.084;5.090;2024-03-02T13:34:34;40.83;;;39.43;;
13605;SDS011;6874;52.084;5.090;2024-03-02T13:37:00;42.70;;;41.17;;
13605;SDS011;6874;52.084;5.090;2024-03-02T13:39:26;45.80;;;44.23;;
13605;SDS011;6874;52.084;5.090;2024-03-02T13:41:52;53.83;;;51.93;;
13605;SDS011;6874;52.084;5.090;2024-03-02T13:44:22;55.10;;;53.20;;
13605;SDS011;6874;52.084;5.090;2024-03-02T13:46:48;60.23;;;58.13;;
13605;SDS011;6874;52.084;5.090;2024-03-02T13:49:14;43.77;;;42.27;;
13605;SDS011;6874;52.084;5.090;2024-03-02T13:51:39;35.63;;;34.43;;
13605;SDS011;6874;52.084;5.090;2024-03-02T13:54:05;33.63;;;32.53;;
13605;SDS011;6874;52.084;5.090;2024-03-02T13:56:31;30.30;;;29.33;;
13605;SDS011;6874;52.084;5.090;2024-03-02T13:58:57;33.30;;;32.20;;
13605;SDS011;6874;52.084;5.090;2024-03-02T14:01:23;35.03;;;33.90;;
13605;SDS011;6874;52.084;5.090;2024-03-02T14:03:49;32.77;;;31.67;;
13605;SDS011;6874;52.084;5.090;2024-03-02T14:06:15;35.10;;;33.90;;
13605;SDS011;6874;52.084;5.090;2024-03-02T14:08:41;30.77;;;29.77;;
13605;SDS011;6874;52.084;5.090;2024-03-02T14:11:09;33.83;;;32.73;;
13605;SDS011;6874;52.084;5.090;2024-03-02T14:13:39;34.63;;;33.50;;
13605;SDS011;6874;52.084;5.090;2024-03-02T14:16:06;35.10;;;33.90;;
13605;SDS011;6874;52.084;5.090;2024-03-02T14:18:31;41.20;;;39.80;;
13605;SDS011;6874;52.084;5.090;2024-03-02T14:20:57;46.50;;;44.90;;
13605;SDS011;6874;52.084;5.090;2024-03-02T14:23:23;51.80;;;50.00;;
13605;SDS011;6874;52.084;5.090;2024-03-02T14:25:48;54.23;;;52.33;;
13605;SDS011;6874;52.084;5.090;2024-03-02T14:28:14;59.80;;;57.70;;
13605;SDS011;6874;52.084;5.090;2024-03-02T14:30:41;62.93;;;60.63;;
13605;SDS011;6874;52.084;5.090;2024-03-02T14:33:06;66.67;;;64.23;;
13605;SDS011;6874;52.084;5.090;2024-03-02T14:35:32;67.57;;;65.10;;
13605;SDS011;6874;52.084;5.090;2024-03-02T14:37:58;62.23;;;59.93;;
13605;SDS011;6874;52.084;5.090;2024-03-02T14:40:23;67.30;;;64.73;;
13605;SDS011;6874;52.084;5.090;2024-03-02T14:42:52;58.40;;;56.27;;